createdAt,value
2022-11-29T00:01:53.412Z,97136.34
2022-11-29T00:04:38.980Z,97140.75
2022-11-29T00:07:24.462Z,97139.75
2022-11-29T00:10:10.190Z,97145.78
2022-11-29T00:12:55.876Z,97144.19
2022-11-29T00:15:41.619Z,97139.41
2022-11-29T00:18:27.056Z,97133.53
2022-11-29T00:21:12.773Z,97134.97
2022-11-29T00:23:58.255Z,97134.19
2022-11-29T00:26:43.835Z,97131.38
2022-11-29T00:29:30.303Z,97134.19
2022-11-29T00:32:15.787Z,97135.78
2022-11-29T00:35:06.669Z,97132.19
2022-11-29T00:37:55.139Z,97135.78
2022-11-29T00:40:40.252Z,97137.59
2022-11-29T00:43:25.910Z,97129.94
2022-11-29T00:46:12.851Z,97135.16
2022-11-29T00:48:58.166Z,97128.31
2022-11-29T00:51:43.621Z,97131.72
2022-11-29T00:54:29.112Z,97134.19
2022-11-29T00:57:14.524Z,97128.97
2022-11-29T01:00:00.006Z,97135.44
2022-11-29T01:02:45.419Z,97134.09
2022-11-29T01:05:32.125Z,97143.22
2022-11-29T01:08:17.834Z,97139.59
2022-11-29T01:11:12.302Z,97145.63
2022-11-29T01:14:00.256Z,97141.47
2022-11-29T01:16:45.742Z,97136.25
2022-11-29T01:19:31.121Z,97145.06
2022-11-29T01:22:16.644Z,97145.91
2022-11-29T01:25:02.786Z,97146.53
2022-11-29T01:27:48.272Z,97144.09
2022-11-29T01:30:33.446Z,97149.16
2022-11-29T01:33:18.890Z,97149.97
2022-11-29T01:36:05.882Z,97154.84
2022-11-29T01:38:52.162Z,97154.00
2022-11-29T01:41:37.987Z,97145.53
2022-11-29T01:44:23.401Z,97146.34
2022-11-29T01:47:11.193Z,97150.41
2022-11-29T01:49:56.882Z,97147.81
2022-11-29T01:52:42.831Z,97147.00
2022-11-29T01:55:28.686Z,97148.78
2022-11-29T01:58:15.339Z,97147.00
2022-11-29T02:01:01.718Z,97143.56
2022-11-29T02:03:47.093Z,97144.72
2022-11-29T02:06:33.757Z,97149.16
2022-11-29T02:09:21.914Z,97144.91
2022-11-29T02:12:20.396Z,97138.69
2022-11-29T02:15:54.209Z,97142.91
2022-11-29T02:19:00.517Z,97147.97
2022-11-29T02:21:54.081Z,97148.16
2022-11-29T02:24:51.726Z,97141.13
2022-11-29T02:28:16.414Z,97147.97
2022-11-29T02:31:24.018Z,97146.16
2022-11-29T02:34:12.049Z,97156.63
2022-11-29T02:37:16.257Z,97142.56
2022-11-29T02:40:26.216Z,97149.63
2022-11-29T02:43:33.669Z,97150.41
2022-11-29T02:46:34.547Z,97147.97
2022-11-29T02:49:26.151Z,97145.53
2022-11-29T02:52:21.107Z,97150.59
2022-11-29T02:55:15.395Z,97155.66
2022-11-29T02:58:06.944Z,97153.69
2022-11-29T03:01:10.657Z,97154.47
2022-11-29T03:04:22.053Z,97156.91
2022-11-29T03:07:13.655Z,97162.78
2022-11-29T03:10:07.983Z,97167.03
2022-11-29T03:12:55.009Z,97164.22
2022-11-29T03:16:09.698Z,97174.50
2022-11-29T03:19:14.224Z,97166.84
2022-11-29T03:22:08.742Z,97167.66
2022-11-29T03:25:00.087Z,97173.50
2022-11-29T03:27:59.947Z,97168.28
2022-11-29T03:30:59.011Z,97171.06
2022-11-29T03:33:50.294Z,97175.31
2022-11-29T03:37:04.122Z,97177.09
2022-11-29T03:40:14.467Z,97177.94
2022-11-29T03:43:05.985Z,97177.94
2022-11-29T03:46:02.310Z,97179.38
2022-11-29T03:49:01.580Z,97175.94
2022-11-29T03:51:58.685Z,97179.72
2022-11-29T03:55:05.719Z,97182.34
2022-11-29T03:58:03.663Z,97182.34
2022-11-29T04:00:49.071Z,97177.28
2022-11-29T04:03:52.813Z,97180.75
2022-11-29T04:07:00.640Z,97177.09
2022-11-29T04:10:27.315Z,97182.34
2022-11-29T04:13:31.029Z,97177.09
2022-11-29T04:17:04.367Z,97186.78
2022-11-29T04:20:11.658Z,97190.81
2022-11-29T04:23:34.481Z,97184.81
2022-11-29T04:26:53.801Z,97190.03
2022-11-29T04:29:55.364Z,97193.81
2022-11-29T04:33:02.579Z,97185.13
2022-11-29T04:35:48.852Z,97191.19
2022-11-29T04:38:46.270Z,97186.78
2022-11-29T04:41:52.753Z,97192.81
2022-11-29T04:44:53.603Z,97193.63
2022-11-29T04:47:52.815Z,97194.88
2022-11-29T04:51:12.985Z,97197.16
2022-11-29T04:54:14.835Z,97203.56
2022-11-29T04:57:17.973Z,97199.31
2022-11-29T05:00:12.709Z,97201.75
2022-11-29T05:03:16.577Z,97198.16
2022-11-29T05:06:19.470Z,97199.78
2022-11-29T05:09:24.581Z,97194.53
2022-11-29T05:12:36.479Z,97194.53
2022-11-29T05:16:14.728Z,97203.19
2022-11-29T05:19:26.080Z,97204.03
2022-11-29T05:22:25.958Z,97200.22
2022-11-29T05:25:17.463Z,97213.47
2022-11-29T05:28:17.811Z,97208.69
2022-11-29T05:31:37.050Z,97208.69
2022-11-29T05:35:04.723Z,97215.56
2022-11-29T05:37:57.010Z,97212.94
2022-11-29T05:41:01.440Z,97210.31
2022-11-29T05:43:52.880Z,97209.34
2022-11-29T05:46:58.687Z,97211.16
2022-11-29T05:49:58.327Z,97217.00
2022-11-29T05:52:59.563Z,97217.19
2022-11-29T05:56:10.294Z,97219.63
2022-11-29T05:59:08.865Z,97228.28
2022-11-29T06:02:09.679Z,97225.69
2022-11-29T06:05:22.982Z,97227.31
2022-11-29T06:08:22.215Z,97223.06
2022-11-29T06:11:30.767Z,97231.53
2022-11-29T06:14:41.667Z,97229.75
2022-11-29T06:17:35.697Z,97232.16
2022-11-29T06:20:48.632Z,97234.78
2022-11-29T06:23:59.820Z,97234.13
2022-11-29T06:27:15.046Z,97232.16
2022-11-29T06:30:13.331Z,97240.66
2022-11-29T06:33:15.305Z,97236.22
2022-11-29T06:36:22.230Z,97231.81
2022-11-29T06:39:09.904Z,97239.84
2022-11-29T06:41:56.145Z,97237.22
2022-11-29T06:44:42.923Z,97239.69
2022-11-29T06:47:36.851Z,97245.53
2022-11-29T06:50:43.750Z,97253.19
2022-11-29T06:53:41.363Z,97250.41
2022-11-29T06:56:47.012Z,97249.44
2022-11-29T06:59:50.570Z,97258.88
2022-11-29T07:02:45.326Z,97260.50
2022-11-29T07:05:33.081Z,97260.34
2022-11-29T07:08:21.645Z,97261.16
2022-11-29T07:11:07.332Z,97262.59
2022-11-29T07:13:53.354Z,97270.25
2022-11-29T07:17:03.835Z,97266.47
2022-11-29T07:20:09.668Z,97266.31
2022-11-29T07:23:01.544Z,97263.50
2022-11-29T07:26:16.616Z,97256.28
2022-11-29T07:29:19.341Z,97265.59
2022-11-29T07:32:10.965Z,97274.06
2022-11-29T07:35:16.013Z,97264.22
2022-11-29T07:38:20.315Z,97277.13
2022-11-29T07:41:10.060Z,97270.72
2022-11-29T07:44:34.350Z,97281.03
2022-11-29T07:47:19.897Z,97278.88
2022-11-29T07:50:05.655Z,97281.31
2022-11-29T07:52:51.273Z,97276.72
2022-11-29T07:55:37.454Z,97288.63
2022-11-29T07:58:23.225Z,97287.44
2022-11-29T08:01:08.922Z,97280.22
2022-11-29T08:03:54.519Z,97287.91
2022-11-29T08:06:39.908Z,97293.59
2022-11-29T08:09:25.802Z,97293.41
2022-11-29T08:12:11.232Z,97289.78
2022-11-29T08:14:57.006Z,97287.81
2022-11-29T08:17:42.366Z,97300.53
2022-11-29T08:20:27.997Z,97292.69
2022-11-29T08:23:15.621Z,97290.69
2022-11-29T08:26:02.856Z,97304.41
2022-11-29T08:28:52.859Z,97297.38
2022-11-29T08:31:38.460Z,97298.03
2022-11-29T08:34:24.438Z,97299.00
2022-11-29T08:37:10.012Z,97299.63
2022-11-29T08:39:56.248Z,97303.06
2022-11-29T08:42:41.726Z,97302.06
2022-11-29T08:45:27.190Z,97299.28
2022-11-29T08:48:14.137Z,97306.13
2022-11-29T08:50:59.835Z,97311.00
2022-11-29T08:53:51.675Z,97311.84
2022-11-29T08:59:45.014Z,97318.50
2022-11-29T09:02:30.189Z,97314.72
2022-11-29T09:05:16.097Z,97318.97
2022-11-29T09:08:01.822Z,97325.84
2022-11-29T09:10:47.658Z,97328.91
2022-11-29T09:13:32.892Z,97327.53
2022-11-29T09:16:20.853Z,97332.59
2022-11-29T09:19:07.652Z,97329.78
2022-11-29T09:21:53.955Z,97328.63
2022-11-29T09:24:39.333Z,97333.88
2022-11-29T09:27:24.768Z,97332.22
2022-11-29T09:30:10.586Z,97336.47
2022-11-29T09:32:56.264Z,97332.84
2022-11-29T09:35:42.562Z,97337.09
2022-11-29T09:38:28.166Z,97333.47
2022-11-29T09:41:32.021Z,97333.47
2022-11-29T09:44:26.423Z,97330.50
2022-11-29T09:47:41.773Z,97332.94
2022-11-29T09:50:40.827Z,97333.59
2022-11-29T09:53:34.873Z,97335.19
2022-11-29T09:56:42.247Z,97339.63
2022-11-29T09:59:35.391Z,97344.88
2022-11-29T10:02:45.688Z,97340.44
2022-11-29T10:06:00.467Z,97343.69
2022-11-29T10:08:57.892Z,97341.50
2022-11-29T10:12:19.066Z,97335.91
2022-11-29T10:15:22.924Z,97341.78
2022-11-29T10:18:23.978Z,97333.66
2022-11-29T10:21:35.248Z,97334.44
2022-11-29T10:24:24.746Z,97334.91
2022-11-29T10:27:19.711Z,97340.78
2022-11-29T10:30:07.098Z,97330.94
2022-11-29T10:33:00.452Z,97332.56
2022-11-29T10:35:49.264Z,97334.59
2022-11-29T10:38:34.993Z,97337.88
2022-11-29T10:41:22.920Z,97338.31
2022-11-29T10:44:14.610Z,97335.16
2022-11-29T10:47:09.276Z,97331.53
2022-11-29T10:49:56.993Z,97337.56
2022-11-29T10:52:42.904Z,97333.97
2022-11-29T10:55:45.027Z,97338.22
2022-11-29T10:58:31.999Z,97335.16
2022-11-29T11:01:18.749Z,97337.97
2022-11-29T11:04:09.975Z,97333.50
2022-11-29T11:07:01.807Z,97343.63
2022-11-29T11:09:49.787Z,97340.00
2022-11-29T11:12:39.133Z,97335.59
2022-11-29T11:15:24.454Z,97333.56
2022-11-29T11:18:21.288Z,97329.94
2022-11-29T11:21:11.002Z,97326.97
2022-11-29T11:23:58.444Z,97337.66
2022-11-29T11:26:45.250Z,97334.84
2022-11-29T11:29:40.882Z,97337.28
2022-11-29T11:32:26.711Z,97335.44
2022-11-29T11:35:31.374Z,97337.28
2022-11-29T11:38:17.644Z,97343.69
2022-11-29T11:41:07.604Z,97347.13
2022-11-29T11:44:00.416Z,97347.31
2022-11-29T11:46:56.504Z,97354.19
2022-11-29T11:49:47.911Z,97348.94
2022-11-29T11:52:50.410Z,97348.94
2022-11-29T11:55:53.420Z,97346.13
2022-11-29T11:58:49.883Z,97347.75
2022-11-29T12:01:39.400Z,97352.81
2022-11-29T12:04:37.211Z,97358.69
2022-11-29T12:11:07.790Z,97356.72
2022-11-29T12:13:57.335Z,97361.97
2022-11-29T12:16:50.039Z,97370.81
2022-11-29T12:19:46.877Z,97367.38
2022-11-29T12:22:46.588Z,97367.38
2022-11-29T12:25:58.898Z,97362.94
2022-11-29T12:28:46.306Z,97363.31
2022-11-29T12:31:59.621Z,97366.13
2022-11-29T12:35:29.356Z,97367.94
2022-11-29T12:38:21.323Z,97365.94
2022-11-29T12:41:35.109Z,97363.16
2022-11-29T12:44:41.721Z,97370.19
2022-11-29T12:48:03.131Z,97366.94
2022-11-29T12:51:33.041Z,97368.75
2022-11-29T12:54:44.417Z,97368.94
2022-11-29T12:57:57.398Z,97375.97
2022-11-29T13:00:56.053Z,97368.31
2022-11-29T13:03:57.629Z,97381.41
2022-11-29T13:07:17.332Z,97382.06
2022-11-29T13:10:42.998Z,97396.16
2022-11-29T13:13:38.926Z,97390.66
2022-11-29T13:16:49.593Z,97390.03
2022-11-29T13:19:42.929Z,97394.47
2022-11-29T13:22:54.336Z,97394.00
2022-11-29T13:25:42.674Z,97394.00
2022-11-29T13:28:33.007Z,97393.19
2022-11-29T13:31:23.598Z,97397.63
2022-11-29T13:34:20.048Z,97396.81
2022-11-29T13:37:36.797Z,97396.00
2022-11-29T13:40:48.789Z,97396.34
2022-11-29T13:43:51.983Z,97396.91
2022-11-29T13:46:57.823Z,97400.72
2022-11-29T13:50:04.298Z,97401.06
2022-11-29T13:52:49.767Z,97408.75
2022-11-29T13:55:48.787Z,97407.94
2022-11-29T13:58:37.422Z,97404.69
2022-11-29T14:01:24.746Z,97405.06
2022-11-29T14:04:41.648Z,97403.44
2022-11-29T14:07:27.612Z,97406.25
2022-11-29T14:10:29.046Z,97414.28
2022-11-29T14:13:16.183Z,97415.91
2022-11-29T14:16:05.145Z,97419.50
2022-11-29T14:19:04.285Z,97418.25
2022-11-29T14:21:58.834Z,97426.47
2022-11-29T14:24:57.199Z,97421.59
2022-11-29T14:27:54.185Z,97422.78
2022-11-29T14:30:42.311Z,97429.81
2022-11-29T14:33:28.033Z,97435.25
2022-11-29T14:36:33.337Z,97430.19
2022-11-29T14:39:31.514Z,97431.00
2022-11-29T14:42:18.822Z,97426.91
2022-11-29T14:45:26.017Z,97425.28
2022-11-29T14:48:30.276Z,97428.91
2022-11-29T14:51:18.793Z,97429.09
2022-11-29T14:54:19.933Z,97430.91
2022-11-29T14:57:45.831Z,97438.13
2022-11-29T15:00:37.209Z,97434.84
2022-11-29T15:03:50.226Z,97443.09
2022-11-29T15:06:43.403Z,97450.31
2022-11-29T15:09:34.941Z,97445.25
2022-11-29T15:12:27.081Z,97444.78
2022-11-29T15:15:31.050Z,97455.63
2022-11-29T15:18:29.152Z,97448.47
2022-11-29T15:21:31.518Z,97451.91
2022-11-29T15:24:18.654Z,97455.72
2022-11-29T15:27:04.878Z,97454.25
2022-11-29T15:29:50.649Z,97466.53
2022-11-29T15:32:37.410Z,97462.28
2022-11-29T15:35:23.852Z,97458.66
2022-11-29T15:38:18.098Z,97464.75
2022-11-29T15:41:03.753Z,97467.06
2022-11-29T15:43:57.724Z,97470.03
2022-11-29T15:46:43.346Z,97463.81
2022-11-29T15:49:30.672Z,97469.84
2022-11-29T15:52:28.883Z,97472.47
2022-11-29T15:55:14.601Z,97470.22
2022-11-29T15:58:08.508Z,97463.69
2022-11-29T16:00:55.777Z,97471.72
2022-11-29T16:03:46.485Z,97472.53
2022-11-29T16:06:41.605Z,97478.31
2022-11-29T16:09:37.809Z,97474.25
2022-11-29T16:12:23.027Z,97472.75
2022-11-29T16:15:26.396Z,97483.41
2022-11-29T16:18:16.878Z,97488.84
2022-11-29T16:21:06.111Z,97488.66
2022-11-29T16:23:51.938Z,97482.44
2022-11-29T16:26:41.848Z,97485.69
2022-11-29T16:29:30.508Z,97485.69
2022-11-29T16:32:24.371Z,97484.88
2022-11-29T16:35:15.000Z,97489.97
2022-11-29T16:38:04.593Z,97499.41
2022-11-29T16:41:07.664Z,97495.34
2022-11-29T16:43:58.306Z,97497.34
2022-11-29T16:46:43.737Z,97494.88
2022-11-29T16:49:36.280Z,97498.47
2022-11-29T16:52:30.422Z,97498.47
2022-11-29T16:55:17.718Z,97496.69
2022-11-29T16:58:04.369Z,97496.88
2022-11-29T17:00:49.984Z,97488.84
2022-11-29T17:03:35.831Z,97496.69
2022-11-29T17:06:23.398Z,97498.66
2022-11-29T17:09:19.732Z,97498.47
2022-11-29T17:12:05.133Z,97502.13
2022-11-29T17:14:50.544Z,97505.72
2022-11-29T17:17:36.321Z,97505.72
2022-11-29T17:20:21.804Z,97506.03
2022-11-29T17:23:09.114Z,97507.69
2022-11-29T17:25:59.000Z,97504.06
2022-11-29T17:28:46.351Z,97514.56
2022-11-29T17:31:32.029Z,97514.56
2022-11-29T17:34:17.708Z,97519.97
2022-11-29T17:37:03.308Z,97521.75
2022-11-29T17:39:49.520Z,97520.94
2022-11-29T17:42:35.067Z,97521.59
2022-11-29T17:45:20.615Z,97528.63
2022-11-29T17:48:06.184Z,97524.38
2022-11-29T17:50:51.819Z,97531.41
2022-11-29T17:53:37.072Z,97529.59
2022-11-29T17:56:25.092Z,97527.97
2022-11-29T17:59:10.776Z,97527.00
2022-11-29T18:01:56.601Z,97535.03
2022-11-29T18:04:44.000Z,97529.78
2022-11-29T18:07:29.188Z,97524.56
2022-11-29T18:10:14.775Z,97528.16
2022-11-29T18:13:00.125Z,97525.53
2022-11-29T18:15:45.578Z,97530.78
2022-11-29T18:18:31.555Z,97533.56
2022-11-29T18:21:19.965Z,97531.28
2022-11-29T18:24:07.152Z,97537.53
2022-11-29T18:26:52.923Z,97533.91
2022-11-29T18:29:39.467Z,97544.38
2022-11-29T18:32:24.851Z,97537.84
2022-11-29T18:35:12.025Z,97537.84
2022-11-29T18:38:14.702Z,97544.25
2022-11-29T18:41:07.656Z,97546.69
2022-11-29T18:44:00.861Z,97546.22
2022-11-29T18:46:47.637Z,97545.25
2022-11-29T18:49:33.420Z,97543.78
2022-11-29T18:52:19.392Z,97551.63
2022-11-29T18:55:05.463Z,97545.59
2022-11-29T18:57:51.585Z,97549.19
2022-11-29T19:00:37.183Z,97557.03
2022-11-29T19:03:23.983Z,97564.06
2022-11-29T19:06:12.316Z,97563.78
2022-11-29T19:09:00.947Z,97564.75
2022-11-29T19:11:46.153Z,97562.13
2022-11-29T19:14:32.490Z,97562.31
2022-11-29T19:17:18.276Z,97566.75
2022-11-29T19:20:04.421Z,97570.34
2022-11-29T19:22:50.035Z,97570.34
2022-11-29T19:25:35.515Z,97569.97
2022-11-29T19:28:20.871Z,97579.66
2022-11-29T19:31:07.541Z,97581.78
2022-11-29T19:33:55.277Z,97587.81
2022-11-29T19:36:43.685Z,97585.22
2022-11-29T19:39:29.989Z,97576.72
2022-11-29T19:42:15.574Z,97584.59
2022-11-29T19:45:16.504Z,97577.53
2022-11-29T19:48:03.398Z,97581.78
2022-11-29T19:50:48.690Z,97579.16
2022-11-29T19:53:35.109Z,97587.03
2022-11-29T19:56:22.193Z,97578.34
2022-11-29T19:59:08.420Z,97582.44
2022-11-29T20:01:54.109Z,97582.44
2022-11-29T20:04:39.605Z,97579.66
2022-11-29T20:07:28.236Z,97591.91
2022-11-29T20:10:14.093Z,97592.56
2022-11-29T20:12:59.789Z,97596.81
2022-11-29T20:15:45.481Z,97601.38
2022-11-29T20:18:34.299Z,97599.59
2022-11-29T20:21:31.442Z,97606.91
2022-11-29T20:24:17.669Z,97606.13
2022-11-29T20:27:03.221Z,97615.13
2022-11-29T20:29:51.141Z,97616.75
2022-11-29T20:32:37.453Z,97611.84
2022-11-29T20:35:23.112Z,97613.16
2022-11-29T20:38:29.338Z,97623.78
2022-11-29T20:41:21.966Z,97624.59
2022-11-29T20:44:10.829Z,97620.00
2022-11-29T20:46:56.518Z,97618.03
2022-11-29T20:49:42.713Z,97611.34
2022-11-29T20:52:45.539Z,97623.44
2022-11-29T20:55:31.462Z,97622.47
2022-11-29T20:58:19.392Z,97632.75
2022-11-29T21:01:05.833Z,97629.34
2022-11-29T21:03:51.341Z,97632.75
2022-11-29T21:06:38.096Z,97633.41
2022-11-29T21:09:23.820Z,97624.72
2022-11-29T21:12:10.220Z,97626.38
2022-11-29T21:14:56.320Z,97618.69
2022-11-29T21:17:42.940Z,97617.72
2022-11-29T21:20:28.703Z,97625.38
2022-11-29T21:23:22.858Z,97614.75
2022-11-29T21:26:16.512Z,97622.78
2022-11-29T21:29:19.120Z,97628.47
2022-11-29T21:32:05.372Z,97624.88
2022-11-29T21:34:51.353Z,97627.84
2022-11-29T21:37:37.814Z,97627.84
2022-11-29T21:40:24.640Z,97633.06
2022-11-29T21:43:10.317Z,97627.84
2022-11-29T21:45:55.867Z,97630.13
2022-11-29T21:48:42.458Z,97636.34
2022-11-29T21:51:27.639Z,97640.59
2022-11-29T21:54:13.133Z,97638.94
2022-11-29T21:56:59.542Z,97635.69
2022-11-29T21:59:45.155Z,97638.94
2022-11-29T22:02:30.715Z,97641.56
2022-11-29T22:05:16.398Z,97645.97
2022-11-29T22:08:02.100Z,97650.91
2022-11-29T22:10:47.476Z,97645.84
2022-11-29T22:13:32.987Z,97643.88
2022-11-29T22:16:18.788Z,97646.03
2022-11-29T22:19:05.306Z,97650.59
2022-11-29T22:21:57.012Z,97649.81
2022-11-29T22:24:42.152Z,97646.16
2022-11-29T22:27:27.871Z,97644.56
2022-11-29T22:30:13.341Z,97644.56
2022-11-29T22:32:58.630Z,97646.53
2022-11-29T22:35:44.706Z,97641.28
2022-11-29T22:38:30.298Z,97640.94
2022-11-29T22:41:16.506Z,97648.66
2022-11-29T22:44:02.612Z,97657.28
2022-11-29T22:46:47.930Z,97656.63
2022-11-29T22:49:33.450Z,97655.34
2022-11-29T22:52:19.137Z,97657.31
2022-11-29T22:55:05.425Z,97653.91
2022-11-29T22:57:53.504Z,97648.47
2022-11-29T23:00:44.013Z,97647.03
2022-11-29T23:03:32.694Z,97646.84
2022-11-29T23:06:21.064Z,97650.47
2022-11-29T23:09:12.001Z,97652.44
2022-11-29T23:11:57.622Z,97648.00
2022-11-29T23:14:42.863Z,97651.47
2022-11-29T23:17:28.304Z,97656.50
2022-11-29T23:20:13.882Z,97656.50
2022-11-29T23:22:59.722Z,97660.75
2022-11-29T23:25:49.682Z,97656.16
2022-11-29T23:28:36.044Z,97655.34
2022-11-29T23:31:22.560Z,97654.56
2022-11-29T23:34:08.836Z,97650.13
2022-11-29T23:36:54.405Z,97656.16
2022-11-29T23:39:39.742Z,97644.09
2022-11-29T23:42:25.850Z,97643.91
2022-11-29T23:45:11.441Z,97645.69
2022-11-29T23:47:57.117Z,97641.63
2022-11-29T23:50:43.130Z,97644.22
2022-11-29T23:53:34.393Z,97636.38
2022-11-29T23:56:21.411Z,97630.34
2022-11-29T23:59:08.833Z,97618.91
